Station: EBLB - 22/10/2021 09:25Z (il y a 20 minutes)
EBLB 220925Z AUTO 26011KT 9999 BKN011/// 06/03 Q1017 GRN
Vent du 260º - 11 kt
Visibilité > 10 km
Ciel 75% couvert à 1100 pieds
Température: +06ºC - Point de rosée: +03ºC - QNH: 1017 hPa
Code couleur militaire: GRN (conditions IMC ou marginales)